createdAt,value
2018-08-24T00:01:38.881Z,19.30
2018-08-24T00:04:07.527Z,19.30
2018-08-24T00:06:37.615Z,19.30
2018-08-24T00:09:16.581Z,19.20
2018-08-24T00:11:45.182Z,19.20
2018-08-24T00:14:13.810Z,19.10
2018-08-24T00:16:43.073Z,19.10
2018-08-24T00:19:13.152Z,19.00
2018-08-24T00:21:41.869Z,18.90
2018-08-24T00:24:11.299Z,18.90
2018-08-24T00:26:39.971Z,18.90
2018-08-24T00:29:09.046Z,18.90
2018-08-24T00:31:39.124Z,18.90
2018-08-24T00:34:07.831Z,18.90
2018-08-24T00:36:36.469Z,18.90
2018-08-24T00:39:07.488Z,19.10
2018-08-24T00:41:36.261Z,19.10
2018-08-24T00:44:04.978Z,19.20
2018-08-24T00:46:33.664Z,19.30
2018-08-24T00:49:02.611Z,19.40
2018-08-24T00:51:31.342Z,19.50
2018-08-24T00:53:59.991Z,19.60
2018-08-24T00:56:28.649Z,19.60
2018-08-24T00:58:57.249Z,19.60
2018-08-24T01:01:26.007Z,19.50
2018-08-24T01:03:54.615Z,19.40
2018-08-24T01:06:23.414Z,19.40
2018-08-24T01:08:52.218Z,19.40
2018-08-24T01:11:25.053Z,19.30
2018-08-24T01:13:54.046Z,19.30
2018-08-24T01:16:27.848Z,19.30
2018-08-24T01:18:56.477Z,19.30
2018-08-24T01:21:25.098Z,19.20
2018-08-24T01:23:53.822Z,19.20
2018-08-24T01:26:23.805Z,19.20
2018-08-24T01:28:53.206Z,19.10
2018-08-24T01:31:21.988Z,19.10
2018-08-24T01:33:50.594Z,19.00
2018-08-24T01:36:19.198Z,18.80
2018-08-24T01:38:47.873Z,18.50
2018-08-24T01:41:16.552Z,18.20
2018-08-24T01:43:45.213Z,18.10
2018-08-24T01:46:15.222Z,17.90
2018-08-24T01:48:43.853Z,17.60
2018-08-24T01:51:13.281Z,17.50
2018-08-24T01:53:41.901Z,17.40
2018-08-24T01:56:10.550Z,17.30
2018-08-24T01:58:39.235Z,17.30
2018-08-24T02:01:07.902Z,17.30
2018-08-24T02:03:36.566Z,17.30
2018-08-24T02:06:05.256Z,17.30
2018-08-24T02:08:34.781Z,17.20
2018-08-24T02:11:07.613Z,17.20
2018-08-24T02:13:42.001Z,17.20
2018-08-24T02:16:10.609Z,17.20
2018-08-24T02:18:44.314Z,17.20
2018-08-24T02:21:19.579Z,17.10
2018-08-24T02:23:48.227Z,17.10
2018-08-24T02:26:16.817Z,17.10
2018-08-24T02:28:45.428Z,17.10
2018-08-24T02:31:14.101Z,17.00
2018-08-24T02:33:43.753Z,17.00
2018-08-24T02:36:12.391Z,17.00
2018-08-24T02:38:41.015Z,17.00
2018-08-24T02:41:09.661Z,17.00
2018-08-24T02:43:38.280Z,17.00
2018-08-24T02:46:07.135Z,17.00
2018-08-24T02:48:35.799Z,16.90
2018-08-24T02:51:04.528Z,16.90
2018-08-24T02:53:33.242Z,16.80
2018-08-24T02:56:01.886Z,16.60
2018-08-24T02:58:30.453Z,16.50
2018-08-24T03:00:59.137Z,16.40
2018-08-24T03:03:27.719Z,16.20
2018-08-24T03:05:56.414Z,16.10
2018-08-24T03:08:25.090Z,16.10
2018-08-24T03:10:53.669Z,16.00
2018-08-24T03:13:22.263Z,15.90
2018-08-24T03:15:50.989Z,15.80
2018-08-24T03:18:19.631Z,15.80
2018-08-24T03:20:48.366Z,15.70
2018-08-24T03:23:17.058Z,15.70
2018-08-24T03:25:45.659Z,15.70
2018-08-24T03:28:14.270Z,15.70
2018-08-24T03:30:42.929Z,15.60
2018-08-24T03:33:11.625Z,15.70
2018-08-24T03:35:40.258Z,15.60
2018-08-24T03:38:08.927Z,15.60
2018-08-24T03:40:37.527Z,15.60
2018-08-24T03:43:06.226Z,15.60
2018-08-24T03:45:34.918Z,15.70
2018-08-24T03:48:03.551Z,15.60
2018-08-24T03:50:32.191Z,15.60
2018-08-24T03:53:00.897Z,15.50
2018-08-24T03:55:33.666Z,15.50
2018-08-24T03:58:02.269Z,15.50
2018-08-24T04:00:30.899Z,15.60
2018-08-24T04:02:59.565Z,15.70
2018-08-24T04:05:28.198Z,15.80
2018-08-24T04:07:56.839Z,15.90
2018-08-24T04:10:26.721Z,15.90
2018-08-24T04:12:57.168Z,15.80
2018-08-24T04:15:25.717Z,15.80
2018-08-24T04:17:54.368Z,15.70
2018-08-24T04:20:23.029Z,15.60
2018-08-24T04:22:51.713Z,15.60
2018-08-24T04:25:20.377Z,15.50
2018-08-24T04:27:48.973Z,15.50
2018-08-24T04:30:17.717Z,15.40
2018-08-24T04:32:46.402Z,15.40
2018-08-24T04:35:15.080Z,15.50
2018-08-24T04:37:43.721Z,15.50
2018-08-24T04:40:12.385Z,15.60
2018-08-24T04:42:41.014Z,15.80
2018-08-24T04:45:09.649Z,15.90
2018-08-24T04:47:38.279Z,16.00
2018-08-24T04:50:07.037Z,16.00
2018-08-24T04:52:35.637Z,16.20
2018-08-24T04:55:04.358Z,16.30
2018-08-24T04:57:33.017Z,16.40
2018-08-24T05:00:01.700Z,16.50
2018-08-24T05:02:30.310Z,16.50
2018-08-24T05:04:58.934Z,16.60
2018-08-24T05:07:27.512Z,16.60
2018-08-24T05:09:56.266Z,16.60
2018-08-24T05:12:24.947Z,16.60
2018-08-24T05:14:53.556Z,16.70
2018-08-24T05:17:22.221Z,16.70
2018-08-24T05:19:50.838Z,16.70
2018-08-24T05:22:19.482Z,16.70
2018-08-24T05:24:48.166Z,16.70
2018-08-24T05:27:16.814Z,16.80
2018-08-24T05:29:45.446Z,16.90
2018-08-24T05:32:14.090Z,16.90
2018-08-24T05:34:49.363Z,17.00
2018-08-24T05:37:18.183Z,17.00
2018-08-24T05:39:46.787Z,17.00
2018-08-24T05:42:15.488Z,17.10
2018-08-24T05:44:44.109Z,17.10
2018-08-24T05:47:12.742Z,17.20
2018-08-24T05:49:41.347Z,17.20
2018-08-24T05:52:10.013Z,17.30
2018-08-24T05:54:38.669Z,17.40
2018-08-24T05:57:07.413Z,17.40
2018-08-24T05:59:36.032Z,17.30
2018-08-24T06:02:04.721Z,17.30
2018-08-24T06:04:33.325Z,17.30
2018-08-24T06:07:02.070Z,17.40
2018-08-24T06:09:30.754Z,17.40
2018-08-24T06:11:59.581Z,17.40
2018-08-24T06:14:28.282Z,17.50
2018-08-24T06:17:02.107Z,17.50
2018-08-24T06:19:30.814Z,17.60
2018-08-24T06:21:59.481Z,17.70
2018-08-24T06:24:28.132Z,17.70
2018-08-24T06:26:56.774Z,17.60
2018-08-24T06:29:25.585Z,17.70
2018-08-24T06:31:54.253Z,17.80
2018-08-24T06:34:23.975Z,18.00
2018-08-24T06:36:52.750Z,18.10
2018-08-24T06:39:21.381Z,18.40
2018-08-24T06:41:50.009Z,18.60
2018-08-24T06:44:18.662Z,18.80
2018-08-24T06:46:47.238Z,18.80
2018-08-24T06:49:15.890Z,18.80
2018-08-24T06:51:44.493Z,18.80
2018-08-24T06:54:13.277Z,18.90
2018-08-24T06:56:41.914Z,19.00
2018-08-24T06:59:10.590Z,19.30
2018-08-24T07:01:39.262Z,19.80
2018-08-24T07:04:08.647Z,20.80
2018-08-24T07:06:37.324Z,21.10
2018-08-24T07:09:07.486Z,21.50
2018-08-24T07:11:36.194Z,22.40
2018-08-24T07:14:04.864Z,22.40
2018-08-24T07:16:33.526Z,21.60
2018-08-24T07:19:02.184Z,20.80
2018-08-24T07:21:30.968Z,20.60
2018-08-24T07:23:59.668Z,20.40
2018-08-24T07:26:28.334Z,20.30
2018-08-24T07:28:56.973Z,20.30
2018-08-24T07:31:25.668Z,20.10
2018-08-24T07:33:54.316Z,19.80
2018-08-24T07:36:22.985Z,19.60
2018-08-24T07:38:51.660Z,19.50
2018-08-24T07:41:20.404Z,19.10
2018-08-24T07:43:49.029Z,19.00
2018-08-24T07:46:17.705Z,19.00
2018-08-24T07:48:46.317Z,19.00
2018-08-24T07:51:14.981Z,18.90
2018-08-24T07:53:43.628Z,18.90
2018-08-24T07:56:12.346Z,18.90
2018-08-24T07:58:41.054Z,18.90
2018-08-24T08:01:09.782Z,19.10
2018-08-24T08:03:38.590Z,19.10
2018-08-24T08:06:07.245Z,19.20
2018-08-24T08:08:35.861Z,19.40
2018-08-24T08:11:04.929Z,19.70
2018-08-24T08:13:33.638Z,19.80
2018-08-24T08:16:02.328Z,19.60
2018-08-24T08:18:30.993Z,19.70
2018-08-24T08:20:59.702Z,19.80
2018-08-24T08:23:28.397Z,20.00
2018-08-24T08:25:57.067Z,20.10
2018-08-24T08:28:25.783Z,20.00
2018-08-24T08:30:54.401Z,20.00
2018-08-24T08:33:23.101Z,20.40
2018-08-24T08:35:51.719Z,20.80
2018-08-24T08:38:20.421Z,21.00
2018-08-24T08:40:49.051Z,21.00
2018-08-24T08:43:18.545Z,20.80
2018-08-24T08:45:47.362Z,20.30
2018-08-24T08:48:16.017Z,20.00
2018-08-24T08:50:44.695Z,19.90
2018-08-24T08:53:13.418Z,20.00
2018-08-24T08:55:42.019Z,20.40
2018-08-24T08:58:10.646Z,20.30
2018-08-24T09:00:39.414Z,20.40
2018-08-24T09:03:08.087Z,20.50
2018-08-24T09:05:36.739Z,20.60
2018-08-24T09:08:05.554Z,20.80
2018-08-24T09:10:34.270Z,20.90
2018-08-24T09:13:03.002Z,21.20
2018-08-24T09:15:31.625Z,21.40
2018-08-24T09:18:05.374Z,21.50
2018-08-24T09:20:39.316Z,21.70
2018-08-24T09:23:13.260Z,21.90
2018-08-24T09:25:47.268Z,22.10
2018-08-24T09:28:22.890Z,21.80
2018-08-24T09:31:00.796Z,23.30
2018-08-24T09:33:29.434Z,25.00
2018-08-24T09:36:02.173Z,26.00
2018-08-24T09:38:30.861Z,27.40
2018-08-24T09:40:59.565Z,25.60
2018-08-24T09:43:33.470Z,24.40
2018-08-24T09:46:02.111Z,22.50
2018-08-24T09:48:34.915Z,22.00
2018-08-24T09:51:08.949Z,21.90
2018-08-24T09:53:42.807Z,22.50
2018-08-24T09:56:11.489Z,24.30
2018-08-24T09:58:40.122Z,24.80
2018-08-24T10:01:14.187Z,25.30
2018-08-24T10:03:48.253Z,25.50
2018-08-24T10:06:22.284Z,25.80
2018-08-24T10:08:51.224Z,26.40
2018-08-24T10:11:19.969Z,26.50
2018-08-24T10:13:48.681Z,26.00
2018-08-24T10:16:17.408Z,25.30
2018-08-24T10:18:46.165Z,26.50
2018-08-24T10:21:15.069Z,27.30
2018-08-24T10:23:43.870Z,27.20
2018-08-24T10:26:12.518Z,26.00
2018-08-24T10:28:41.133Z,26.10
2018-08-24T10:31:09.787Z,26.20
2018-08-24T10:33:38.580Z,26.30
2018-08-24T10:36:07.309Z,25.60
2018-08-24T10:38:35.932Z,25.20
2018-08-24T10:41:04.640Z,25.80
2018-08-24T10:43:33.301Z,26.60
2018-08-24T10:46:01.892Z,27.40
2018-08-24T10:48:30.549Z,28.00
2018-08-24T10:50:59.185Z,27.30
2018-08-24T10:53:27.864Z,26.00
2018-08-24T10:55:56.546Z,25.40
2018-08-24T10:58:25.322Z,25.70
2018-08-24T11:00:53.966Z,25.40
2018-08-24T11:03:22.546Z,24.60
2018-08-24T11:05:51.240Z,23.80
2018-08-24T11:08:19.852Z,23.30
2018-08-24T11:10:48.534Z,23.20
2018-08-24T11:13:17.186Z,23.50
2018-08-24T11:15:48.781Z,23.70
2018-08-24T11:18:17.869Z,23.50
2018-08-24T11:20:46.505Z,23.00
2018-08-24T11:23:15.182Z,23.30
2018-08-24T11:25:43.894Z,23.50
2018-08-24T11:28:12.666Z,23.60
2018-08-24T11:30:41.346Z,23.70
2018-08-24T11:33:10.036Z,23.90
2018-08-24T11:35:38.735Z,24.00
2018-08-24T11:38:07.388Z,24.10
2018-08-24T11:40:36.028Z,24.00
2018-08-24T11:43:04.746Z,23.90
2018-08-24T11:45:33.499Z,24.00
2018-08-24T11:48:02.166Z,24.10
2018-08-24T11:50:30.817Z,23.50
2018-08-24T11:52:59.429Z,23.40
2018-08-24T11:55:28.095Z,23.30
2018-08-24T11:57:56.746Z,23.30
2018-08-24T12:00:31.733Z,23.30
2018-08-24T12:03:01.403Z,23.10
2018-08-24T12:05:30.467Z,23.40
2018-08-24T12:07:59.222Z,23.70
2018-08-24T12:10:28.113Z,23.30
2018-08-24T12:12:57.451Z,23.60
2018-08-24T12:15:26.090Z,23.80
2018-08-24T12:17:54.908Z,24.30
2018-08-24T12:20:23.641Z,24.10
2018-08-24T12:22:52.533Z,23.80
2018-08-24T12:25:21.207Z,23.30
2018-08-24T12:27:49.854Z,23.70
2018-08-24T12:30:18.486Z,24.20
2018-08-24T12:32:47.239Z,24.30
2018-08-24T12:35:15.878Z,24.20
2018-08-24T12:37:45.778Z,24.00
2018-08-24T12:40:15.184Z,23.80
2018-08-24T12:42:43.945Z,24.30
2018-08-24T12:45:12.618Z,24.10
2018-08-24T12:47:41.230Z,23.40
2018-08-24T12:50:10.471Z,23.20
2018-08-24T12:52:39.157Z,23.20
2018-08-24T12:55:07.885Z,23.20
2018-08-24T12:57:36.609Z,23.20
2018-08-24T13:00:05.853Z,23.60
2018-08-24T13:02:34.466Z,24.00
2018-08-24T13:05:03.198Z,24.00
2018-08-24T13:07:31.861Z,23.90
2018-08-24T13:10:00.534Z,24.10
2018-08-24T13:12:29.198Z,24.20
2018-08-24T13:14:57.849Z,24.10
2018-08-24T13:17:26.554Z,23.50
2018-08-24T13:19:55.225Z,23.50
2018-08-24T13:22:23.893Z,23.20
2018-08-24T13:24:52.561Z,23.50
2018-08-24T13:27:21.228Z,23.50
2018-08-24T13:29:49.894Z,24.00
2018-08-24T13:32:18.632Z,24.10
2018-08-24T13:34:47.322Z,24.00
2018-08-24T13:37:17.468Z,23.70
2018-08-24T13:39:46.689Z,23.60
2018-08-24T13:42:15.497Z,23.60
2018-08-24T13:44:45.763Z,23.70
2018-08-24T13:47:14.427Z,23.40
2018-08-24T13:49:43.315Z,23.50
2018-08-24T13:52:13.045Z,23.70
2018-08-24T13:54:41.787Z,23.80
2018-08-24T13:57:10.425Z,23.90
2018-08-24T13:59:39.441Z,24.00
2018-08-24T14:02:08.254Z,23.90
2018-08-24T14:04:36.994Z,23.80
2018-08-24T14:07:05.666Z,23.70
2018-08-24T14:09:34.286Z,23.70
2018-08-24T14:12:02.897Z,23.40
2018-08-24T14:14:31.671Z,23.40
2018-08-24T14:17:00.345Z,23.40
2018-08-24T14:19:29.017Z,23.40
2018-08-24T14:21:57.710Z,23.30
2018-08-24T14:24:26.323Z,23.20
2018-08-24T14:26:55.010Z,23.20
2018-08-24T14:29:23.734Z,23.10
2018-08-24T14:31:52.464Z,23.30
2018-08-24T14:34:21.149Z,23.10
2018-08-24T14:36:49.750Z,23.10
2018-08-24T14:39:20.407Z,22.90
2018-08-24T14:41:49.095Z,22.90
2018-08-24T14:44:17.839Z,22.70
2018-08-24T14:46:46.569Z,22.70
2018-08-24T14:49:15.225Z,22.70
2018-08-24T14:51:43.914Z,22.40
2018-08-24T14:54:12.582Z,22.30
2018-08-24T14:56:41.292Z,22.40
2018-08-24T14:59:10.159Z,22.40
2018-08-24T15:01:47.497Z,22.40
2018-08-24T15:04:16.149Z,22.50
2018-08-24T15:06:44.907Z,22.20
2018-08-24T15:09:13.578Z,22.40
2018-08-24T15:11:42.274Z,22.40
2018-08-24T15:14:10.934Z,22.30
2018-08-24T15:16:39.660Z,22.50
2018-08-24T15:19:08.307Z,22.50
2018-08-24T15:21:36.978Z,22.60
2018-08-24T15:24:05.967Z,22.80
2018-08-24T15:26:34.641Z,22.70
2018-08-24T15:29:03.357Z,22.80
2018-08-24T15:31:32.102Z,22.80
2018-08-24T15:34:00.734Z,22.60
2018-08-24T15:36:29.432Z,22.60
2018-08-24T15:38:58.134Z,22.40
2018-08-24T15:41:26.783Z,22.10
2018-08-24T15:43:55.461Z,22.00
2018-08-24T15:46:24.426Z,22.10
2018-08-24T15:48:52.981Z,22.00
2018-08-24T15:51:21.676Z,22.00
2018-08-24T15:53:50.301Z,21.80
2018-08-24T15:56:18.921Z,21.80
2018-08-24T15:58:47.518Z,21.80
2018-08-24T16:01:16.203Z,21.70
2018-08-24T16:03:44.864Z,21.60
2018-08-24T16:06:13.573Z,21.40
2018-08-24T16:08:42.263Z,21.40
2018-08-24T16:11:10.962Z,21.30
2018-08-24T16:13:39.581Z,21.30
2018-08-24T16:16:08.844Z,21.40
2018-08-24T16:18:37.566Z,21.30
2018-08-24T16:21:06.339Z,21.20
2018-08-24T16:23:34.967Z,21.10
2018-08-24T16:26:03.596Z,21.00
2018-08-24T16:28:32.248Z,20.90
2018-08-24T16:31:00.945Z,20.90
2018-08-24T16:33:29.590Z,20.80
2018-08-24T16:35:58.194Z,20.70
2018-08-24T16:38:26.993Z,20.70
2018-08-24T16:40:55.673Z,20.60
2018-08-24T16:43:24.562Z,20.70
2018-08-24T16:45:53.256Z,20.60
2018-08-24T16:48:22.259Z,20.50
2018-08-24T16:50:51.139Z,20.50
2018-08-24T16:53:20.041Z,20.50
2018-08-24T16:55:48.726Z,20.50
2018-08-24T16:58:17.495Z,20.40
2018-08-24T17:00:46.522Z,20.20
2018-08-24T17:03:15.432Z,20.00
2018-08-24T17:05:44.395Z,20.00
2018-08-24T17:08:13.089Z,19.90
2018-08-24T17:10:41.981Z,19.80
2018-08-24T17:13:10.830Z,19.70
2018-08-24T17:15:39.643Z,19.70
2018-08-24T17:18:08.848Z,19.60
2018-08-24T17:20:38.170Z,19.60
2018-08-24T17:23:08.041Z,19.50
2018-08-24T17:25:37.169Z,19.50
2018-08-24T17:28:06.821Z,19.40
2018-08-24T17:30:35.483Z,19.40
2018-08-24T17:33:04.198Z,19.40
2018-08-24T17:35:33.178Z,19.30
2018-08-24T17:38:01.805Z,19.20
2018-08-24T17:40:30.451Z,19.20
2018-08-24T17:42:59.072Z,19.20
2018-08-24T17:45:27.821Z,19.10
2018-08-24T17:47:56.636Z,19.10
2018-08-24T17:50:26.093Z,19.10
2018-08-24T17:52:55.130Z,19.00
2018-08-24T17:55:24.757Z,19.00
2018-08-24T17:57:53.462Z,18.90
2018-08-24T18:00:22.249Z,18.90
2018-08-24T18:02:51.022Z,18.90
2018-08-24T18:05:19.650Z,18.80
2018-08-24T18:07:49.006Z,18.70
2018-08-24T18:10:17.731Z,18.60
2018-08-24T18:12:47.288Z,18.60
2018-08-24T18:15:16.017Z,18.50
2018-08-24T18:17:46.066Z,18.50
2018-08-24T18:20:14.683Z,18.50
2018-08-24T18:22:43.413Z,18.40
2018-08-24T18:25:12.134Z,18.40
2018-08-24T18:27:41.666Z,18.40
2018-08-24T18:30:10.694Z,18.40
2018-08-24T18:32:40.831Z,18.30
2018-08-24T18:35:09.577Z,18.30
2018-08-24T18:37:38.258Z,18.30
2018-08-24T18:40:10.759Z,18.40
2018-08-24T18:42:39.851Z,18.30
2018-08-24T18:45:08.458Z,18.30
2018-08-24T18:47:37.106Z,18.30
2018-08-24T18:50:05.806Z,18.30
2018-08-24T18:52:34.425Z,18.30
2018-08-24T18:55:05.308Z,18.30
2018-08-24T18:57:33.907Z,18.30
2018-08-24T19:00:02.593Z,18.30
2018-08-24T19:02:31.206Z,18.30
2018-08-24T19:05:01.188Z,18.30
2018-08-24T19:07:29.817Z,18.20
2018-08-24T19:09:58.579Z,18.20
2018-08-24T19:12:29.518Z,18.20
2018-08-24T19:15:04.698Z,18.20
2018-08-24T19:17:38.622Z,18.20
2018-08-24T19:20:12.730Z,18.20
2018-08-24T19:22:45.518Z,18.20
2018-08-24T19:25:14.192Z,18.20
2018-08-24T19:27:48.124Z,18.20
2018-08-24T19:30:22.242Z,18.20
2018-08-24T19:32:51.155Z,18.20
2018-08-24T19:35:19.998Z,18.20
2018-08-24T19:37:48.671Z,18.20
2018-08-24T19:40:22.630Z,18.20
2018-08-24T19:42:51.298Z,18.20
2018-08-24T19:45:19.971Z,18.20
2018-08-24T19:47:53.782Z,18.20
2018-08-24T19:50:22.431Z,18.20
2018-08-24T19:52:51.720Z,18.20
2018-08-24T19:55:20.394Z,18.20
2018-08-24T19:57:54.270Z,18.20
2018-08-24T20:00:22.944Z,18.10
2018-08-24T20:02:51.702Z,18.20
2018-08-24T20:05:20.449Z,18.10
2018-08-24T20:07:54.431Z,18.10
2018-08-24T20:10:23.161Z,18.10
2018-08-24T20:12:52.313Z,18.10
2018-08-24T20:15:26.373Z,18.10
2018-08-24T20:17:55.069Z,18.10
2018-08-24T20:20:23.685Z,18.10
2018-08-24T20:22:52.327Z,18.00
2018-08-24T20:25:21.005Z,18.00
2018-08-24T20:27:49.638Z,17.90
2018-08-24T20:30:18.273Z,17.80
2018-08-24T20:32:47.067Z,17.80
2018-08-24T20:35:15.981Z,17.70
2018-08-24T20:37:44.623Z,17.60
2018-08-24T20:40:13.483Z,17.40
2018-08-24T20:42:41.998Z,17.30
2018-08-24T20:45:10.709Z,17.20
2018-08-24T20:47:39.338Z,17.20
2018-08-24T20:50:08.165Z,17.10
2018-08-24T20:52:36.797Z,17.00
2018-08-24T20:55:05.497Z,17.10
2018-08-24T20:57:34.241Z,17.00
2018-08-24T21:00:02.930Z,17.10
2018-08-24T21:02:31.666Z,17.10
2018-08-24T21:05:00.341Z,17.10
2018-08-24T21:07:28.966Z,17.10
2018-08-24T21:09:57.651Z,17.00
2018-08-24T21:12:26.346Z,17.10
2018-08-24T21:14:55.105Z,17.00
2018-08-24T21:17:23.757Z,17.00
2018-08-24T21:19:52.438Z,16.90
2018-08-24T21:22:21.107Z,16.90
2018-08-24T21:24:49.934Z,16.90
2018-08-24T21:27:18.698Z,16.80
2018-08-24T21:29:47.338Z,16.80
2018-08-24T21:32:16.073Z,16.90
2018-08-24T21:34:44.734Z,16.90
2018-08-24T21:37:13.454Z,16.90
2018-08-24T21:40:01.980Z,16.90
2018-08-24T21:42:30.693Z,16.80
2018-08-24T21:45:07.770Z,16.80
2018-08-24T21:47:36.459Z,16.70
2018-08-24T21:50:08.474Z,16.70
2018-08-24T21:52:37.126Z,16.70
2018-08-24T21:55:05.898Z,16.60
2018-08-24T21:57:34.635Z,16.60
2018-08-24T22:00:03.438Z,16.60
2018-08-24T22:02:32.095Z,16.60
2018-08-24T22:05:00.694Z,16.60
2018-08-24T22:07:29.314Z,16.60
2018-08-24T22:09:57.985Z,16.60
2018-08-24T22:12:26.606Z,16.60
2018-08-24T22:14:56.571Z,16.70
2018-08-24T22:17:25.283Z,16.60
2018-08-24T22:19:53.899Z,16.60
2018-08-24T22:22:22.565Z,16.50
2018-08-24T22:24:51.196Z,16.50
2018-08-24T22:27:19.913Z,16.40
2018-08-24T22:29:48.691Z,16.40
2018-08-24T22:32:17.307Z,16.40
2018-08-24T22:34:46.024Z,16.40
2018-08-24T22:37:14.635Z,16.40
2018-08-24T22:39:43.274Z,16.40
2018-08-24T22:42:11.896Z,16.30
2018-08-24T22:44:40.705Z,16.30
2018-08-24T22:47:09.354Z,16.20
2018-08-24T22:49:37.985Z,16.20
2018-08-24T22:52:06.832Z,16.20
2018-08-24T22:54:35.491Z,16.20
2018-08-24T22:57:04.341Z,16.20
2018-08-24T22:59:33.018Z,16.20
2018-08-24T23:02:01.739Z,16.10
2018-08-24T23:04:30.472Z,16.10
2018-08-24T23:06:59.146Z,16.10
2018-08-24T23:09:27.841Z,16.10
2018-08-24T23:11:56.455Z,16.10
2018-08-24T23:14:25.086Z,16.20
2018-08-24T23:16:53.751Z,16.20
2018-08-24T23:19:22.405Z,16.20
2018-08-24T23:21:51.085Z,16.30
2018-08-24T23:24:19.691Z,16.30
2018-08-24T23:26:48.340Z,16.20
2018-08-24T23:29:16.991Z,16.20
2018-08-24T23:31:45.625Z,16.20
2018-08-24T23:34:17.270Z,16.20
2018-08-24T23:36:45.889Z,16.20
2018-08-24T23:39:16.145Z,16.20
2018-08-24T23:41:44.849Z,16.20
2018-08-24T23:44:13.569Z,16.20
2018-08-24T23:46:42.867Z,16.20
2018-08-24T23:49:11.487Z,16.20
2018-08-24T23:51:40.158Z,16.20
2018-08-24T23:54:08.793Z,16.20
2018-08-24T23:56:37.420Z,16.20
2018-08-24T23:59:06.385Z,16.20
